Terminal Aerodrome Forecast
Issued by NWS Jackson, KY

Home | Current Version | Previous Version | Text Only | Print | Product List | Glossary On
Versions: 1 2 3 4 5 6 7 8 9 10 11 12 13 14 15 16
000
FTUS43 KJKL 280500
TAFLOZ
TAF
KLOZ 280522Z 2806/2906 00000KT 5SM BR SCT050 SCT100
     FM281000 00000KT 2SM BR SCT003
     FM281300 VRB03KT P6SM SCT035
     FM281900 VRB05KT P6SM VCTS SCT040CB
     FM290200 VRB03KT 5SM BR FEW040=

USA.gov is the U.S. government's official web portal to all federal, state and local government web resources and services.